Mayville, North Dakota
Current Conditions -  °F | °C
As of 6:53 AM on Friday 19 Dec 2014 (Local Time) from KGFK Reporting Station
Haze Haze  
Wind Chill: 11°   Ceiling: 500
Heat Index: 22°   Visibility: 4mi
Dew Point: 21°   Wind: 10mph
Humidity: 96%   Direction: 170°S
Pressure: 30.07"   Gusts: NA
Location:  47.5°N, 97.32°W
Report Text: KGFK 191253Z 17009KT 4SM BR OVC005 M06/M06 A3007 RMK AO2 SLP199 T10561061
Loading
Personal Weather Stations






























Interactive Weather Map New forecast layout! Learn more

10-Day Weather Forecast

Advertisements
Track Severe Weather on mobile